Nbp Island — V2FH3 — position and weather

sailwx.info

Track history (hours):
 
Tides and Currents Weather Stations Pressure Air Temp Water Temp Dewpoint Dewpoint Depression Visibility Wind Speed Wind Dir Waves Ship Positions

Nbp Island

Last reported at 2014-Aug-09 04:33 UTC. Time now 2014-Aug-28 15:29 UTC.
Position N 35°59' W 005°24'.
Warning: this ship's position is 19 days out of date.

Length 107 m; draft 7.5 m.

Type: Cargo ship. MMSI: 305674000.

Date/timePositionNaut miles runAvg speedWind from/ knotsBaromVisibWave heightAir tempDewpointWater temp
2014-Aug-09 04:33N 35°59' W 005°24'5 5.1
2014-Aug-09 03:31N 35°55' W 005°20'0 0.0
2014-Aug-09 02:31N 35°55' W 005°20'0 0.0
2014-Aug-09 01:31N 35°55' W 005°20'0 0.0
2014-Aug-09 00:31N 35°55' W 005°20'0 0.0
2014-Aug-08 23:31N 35°55' W 005°20'0 0.1
2014-Aug-08 22:31N 35°55' W 005°20'2 1.9
2014-Aug-08 21:33N 35°56' W 005°19'141 9.2
2014-Aug-08 06:13N 36°23' W 002°27'2910.7
2014-Aug-08 03:30N 36°29' W 001°52'2110.7
2014-Aug-08 01:33N 36°32' W 001°26'1110.6
2014-Aug-08 00:32N 36°34' W 001°13'1010.6
2014-Aug-07 23:33N 36°35' W 001°00'1210.7
2014-Aug-07 22:27N 36°37' W 000°46'1310.5
2014-Aug-07 21:11N 36°40' W 000°30'910.2
2014-Aug-07 20:16N 36°41' W 000°18'710.2
2014-Aug-07 19:33N 36°42' W 000°09'1110.2
2014-Aug-07 18:31N 36°44' E 000°04'1010.1
2014-Aug-07 17:33N 36°46' E 000°16'1110.5
2014-Aug-07 16:31N 36°47' E 000°29'1010.8
2014-Aug-07 15:33N 36°49' E 000°42'1110.7
2014-Aug-07 14:31N 36°50' E 000°56'1010.0
2014-Aug-07 13:33N 36°51' E 001°08'1 0.7
2014-Aug-07 12:33N 36°52' E 001°09'1010.0
2014-Aug-07 11:33N 36°53' E 001°21'10 9.7
2014-Aug-07 10:33N 36°55' E 001°33'11 9.5
2014-Aug-07 09:23N 36°56' E 001°47'7 8.8
2014-Aug-07 08:33N 36°57' E 001°56'12 9.5
2014-Aug-07 07:18N 36°59' E 002°11'8 9.2
2014-Aug-07 06:27N 36°59' E 002°20'9 9.7
2014-Aug-07 05:33N 37°01' E 002°31'10 9.8
2014-Aug-07 04:33N 37°02' E 002°43'20 9.6
2014-Aug-07 02:28N 37°05' E 003°08'8 8.7
2014-Aug-07 01:31N 37°06' E 003°18'10 8.2
2014-Aug-07 00:22N 37°07' E 003°30'7 8.4
2014-Aug-06 23:33N 37°08' E 003°39'9 8.7
2014-Aug-06 22:33N 37°10' E 003°49'226 9.8
2014-Aug-05 23:27N 37°40' E 008°31'10 9.3
2014-Aug-05 22:20N 37°42' E 008°44'18 8.5
2014-Aug-05 20:16N 37°42' E 009°06'6 8.0
2014-Aug-05 19:33N 37°42' E 009°13'9 8.4
2014-Aug-05 18:26N 37°41' E 009°25'8 8.9
2014-Aug-05 17:33N 37°41' E 009°35'9 8.9
2014-Aug-05 16:33N 37°40' E 009°46'9 8.9
2014-Aug-05 15:33N 37°40' E 009°57'9 8.7
2014-Aug-05 14:33N 37°39' E 010°08'9 8.8
2014-Aug-05 13:33N 37°38' E 010°19'9 9.2
2014-Aug-05 12:33N 37°36' E 010°31'9 9.5
2014-Aug-05 11:33N 37°33' E 010°42'28 9.3
2014-Aug-05 08:33N 37°26' E 011°16'7010.0
2014-Aug-05 01:33N 36°53' E 012°34'1010.0
2014-Aug-05 00:33N 36°49' E 012°44'10 9.8
2014-Aug-04 23:33N 36°44' E 012°55'11 9.6
2014-Aug-04 22:27N 36°39' E 013°07'9 9.5
2014-Aug-04 21:33N 36°34' E 013°16'10 9.6
2014-Aug-04 20:33N 36°30' E 013°26'1010.1
2014-Aug-04 19:33N 36°25' E 013°38'1010.1
2014-Aug-04 18:33N 36°20' E 013°48'1010.2
2014-Aug-04 17:33N 36°16' E 013°60'1010.2
2014-Aug-04 16:34N 36°11' E 014°11'1010.2
2014-Aug-04 15:33N 36°05' E 014°21'1110.8
2014-Aug-04 14:33N 35°59' E 014°32'8 8.4
2014-Aug-04 13:33N 35°55' E 014°41'4 4.3
2014-Aug-04 12:32N 35°53' E 014°46'0 0.1
2014-Aug-04 11:32N 35°53' E 014°46'0 0.0
2014-Aug-04 10:32N 35°53' E 014°46'0 0.0
2014-Aug-04 09:29N 35°53' E 014°46'0 0.0
2014-Aug-04 08:32N 35°53' E 014°46'  
2014-Aug-01 22:16N 37°27' E 024°03'26 9.7
2014-Aug-01 19:33N 37°48' E 024°24'14110.0
2014-Aug-01 05:24N 39°52' E 025°52'5511.1
2014-Aug-01 00:24N 40°27' E 026°48'3110.8
2014-Jul-31 21:34N 40°41' E 027°24'6010.0
2014-Jul-31 15:31N 40°45' E 028°43'1111.1
2014-Jul-31 14:33N 40°45' E 028°58'1010.4
2014-Jul-31 13:33N 40°45' E 029°11'1110.6
2014-Jul-31 12:30N 40°45' E 029°26'  
Track history (hours):
 
Tides and Currents Weather Stations Pressure Air Temp Water Temp Dewpoint Dewpoint Depression Visibility Wind Speed Wind Dir Waves Ship Positions

Nbp Island

Last reported at 2014-Aug-09 04:33 UTC. Time now 2014-Aug-28 15:29 UTC.
Position N 35°59' W 005°24'.
Warning: this ship's position is 19 days out of date.

Length 107 m; draft 7.5 m.

Type: Cargo ship. MMSI: 305674000.

Date/timePositionNaut miles runAvg speedWind from/ knotsBaromVisibWave heightAir tempDewpointWater temp
2014-Aug-09 04:33N 35°59' W 005°24'5 5.1
2014-Aug-09 03:31N 35°55' W 005°20'0 0.0
2014-Aug-09 02:31N 35°55' W 005°20'0 0.0
2014-Aug-09 01:31N 35°55' W 005°20'0 0.0
2014-Aug-09 00:31N 35°55' W 005°20'0 0.0
2014-Aug-08 23:31N 35°55' W 005°20'0 0.1
2014-Aug-08 22:31N 35°55' W 005°20'2 1.9
2014-Aug-08 21:33N 35°56' W 005°19'141 9.2
2014-Aug-08 06:13N 36°23' W 002°27'2910.7
2014-Aug-08 03:30N 36°29' W 001°52'2110.7
2014-Aug-08 01:33N 36°32' W 001°26'1110.6
2014-Aug-08 00:32N 36°34' W 001°13'1010.6
2014-Aug-07 23:33N 36°35' W 001°00'1210.7
2014-Aug-07 22:27N 36°37' W 000°46'1310.5
2014-Aug-07 21:11N 36°40' W 000°30'910.2
2014-Aug-07 20:16N 36°41' W 000°18'710.2
2014-Aug-07 19:33N 36°42' W 000°09'1110.2
2014-Aug-07 18:31N 36°44' E 000°04'1010.1
2014-Aug-07 17:33N 36°46' E 000°16'1110.5
2014-Aug-07 16:31N 36°47' E 000°29'1010.8
2014-Aug-07 15:33N 36°49' E 000°42'1110.7
2014-Aug-07 14:31N 36°50' E 000°56'1010.0
2014-Aug-07 13:33N 36°51' E 001°08'1 0.7
2014-Aug-07 12:33N 36°52' E 001°09'1010.0
2014-Aug-07 11:33N 36°53' E 001°21'10 9.7
2014-Aug-07 10:33N 36°55' E 001°33'11 9.5
2014-Aug-07 09:23N 36°56' E 001°47'7 8.8
2014-Aug-07 08:33N 36°57' E 001°56'12 9.5
2014-Aug-07 07:18N 36°59' E 002°11'8 9.2
2014-Aug-07 06:27N 36°59' E 002°20'9 9.7
2014-Aug-07 05:33N 37°01' E 002°31'10 9.8
2014-Aug-07 04:33N 37°02' E 002°43'20 9.6
2014-Aug-07 02:28N 37°05' E 003°08'8 8.7
2014-Aug-07 01:31N 37°06' E 003°18'10 8.2
2014-Aug-07 00:22N 37°07' E 003°30'7 8.4
2014-Aug-06 23:33N 37°08' E 003°39'9 8.7
2014-Aug-06 22:33N 37°10' E 003°49'226 9.8
2014-Aug-05 23:27N 37°40' E 008°31'10 9.3
2014-Aug-05 22:20N 37°42' E 008°44'18 8.5
2014-Aug-05 20:16N 37°42' E 009°06'6 8.0
2014-Aug-05 19:33N 37°42' E 009°13'9 8.4
2014-Aug-05 18:26N 37°41' E 009°25'8 8.9
2014-Aug-05 17:33N 37°41' E 009°35'9 8.9
2014-Aug-05 16:33N 37°40' E 009°46'9 8.9
2014-Aug-05 15:33N 37°40' E 009°57'9 8.7
2014-Aug-05 14:33N 37°39' E 010°08'9 8.8
2014-Aug-05 13:33N 37°38' E 010°19'9 9.2
2014-Aug-05 12:33N 37°36' E 010°31'9 9.5
2014-Aug-05 11:33N 37°33' E 010°42'28 9.3
2014-Aug-05 08:33N 37°26' E 011°16'7010.0
2014-Aug-05 01:33N 36°53' E 012°34'1010.0
2014-Aug-05 00:33N 36°49' E 012°44'10 9.8
2014-Aug-04 23:33N 36°44' E 012°55'11 9.6
2014-Aug-04 22:27N 36°39' E 013°07'9 9.5
2014-Aug-04 21:33N 36°34' E 013°16'10 9.6
2014-Aug-04 20:33N 36°30' E 013°26'1010.1
2014-Aug-04 19:33N 36°25' E 013°38'1010.1
2014-Aug-04 18:33N 36°20' E 013°48'1010.2
2014-Aug-04 17:33N 36°16' E 013°60'1010.2
2014-Aug-04 16:34N 36°11' E 014°11'1010.2
2014-Aug-04 15:33N 36°05' E 014°21'1110.8
2014-Aug-04 14:33N 35°59' E 014°32'8 8.4
2014-Aug-04 13:33N 35°55' E 014°41'4 4.3
2014-Aug-04 12:32N 35°53' E 014°46'0 0.1
2014-Aug-04 11:32N 35°53' E 014°46'0 0.0
2014-Aug-04 10:32N 35°53' E 014°46'0 0.0
2014-Aug-04 09:29N 35°53' E 014°46'0 0.0
2014-Aug-04 08:32N 35°53' E 014°46'  
2014-Aug-01 22:16N 37°27' E 024°03'26 9.7
2014-Aug-01 19:33N 37°48' E 024°24'14110.0
2014-Aug-01 05:24N 39°52' E 025°52'5511.1
2014-Aug-01 00:24N 40°27' E 026°48'3110.8
2014-Jul-31 21:34N 40°41' E 027°24'6010.0
2014-Jul-31 15:31N 40°45' E 028°43'1111.1
2014-Jul-31 14:33N 40°45' E 028°58'1010.4
2014-Jul-31 13:33N 40°45' E 029°11'1110.6
2014-Jul-31 12:30N 40°45' E 029°26'  

Dump ship's entire track history